Time;durP1;ratioP1;P1;durP2;ratioP2;P2;SDS_P1;SDS_P2;PMS_P1;PMS_P2;Temp;Humidity;BMP_temperature;BMP_pressure;BME280_temperature;BME280_humidity;BME280_pressure;Samples;Min_cycle;Max_cycle;Signal;HPM_P1;HPM_P2
2022/11/12 00:02:00;;;;;;;42.50;13.82;;;6.80;99.90;;;;;;5053975;28;20227;-64
2022/11/12 00:04:47;;;;;;;46.05;11.30;;;6.80;99.90;;;;;;5053759;28;20232;-65
2022/11/12 00:07:34;;;;;;;66.53;12.40;;;6.80;99.90;;;;;;5069261;28;20199;-65
2022/11/12 00:10:21;;;;;;;28.85;11.95;;;6.80;99.90;;;;;;5073711;28;20545;-66
2022/11/12 00:13:07;;;;;;;24.80;11.70;;;6.80;99.90;;;;;;5073887;28;20661;-66
2022/11/12 00:15:54;;;;;;;19.75;9.68;;;6.80;99.90;;;;;;5073563;28;20191;-66
2022/11/12 00:18:40;;;;;;;36.25;10.90;;;6.80;99.90;;;;;;5073738;28;20626;-66
2022/11/12 00:21:27;;;;;;;51.30;10.02;;;6.80;99.90;;;;;;5069177;28;20203;-66
2022/11/12 00:24:14;;;;;;;55.45;10.63;;;6.70;99.90;;;;;;5062585;28;20254;-66
2022/11/12 00:27:01;;;;;;;36.42;10.35;;;6.80;99.90;;;;;;5064408;28;20585;-66
2022/11/12 00:29:48;;;;;;;28.85;10.05;;;6.80;99.90;;;;;;5053528;28;20682;-66
2022/11/12 00:32:36;;;;;;;33.42;9.93;;;6.90;99.90;;;;;;5054103;28;20541;-65
2022/11/12 00:35:22;;;;;;;29.10;8.57;;;6.90;99.90;;;;;;5055111;28;20196;-65
2022/11/12 00:38:10;;;;;;;38.75;10.48;;;6.80;99.90;;;;;;5054118;28;20527;-66
2022/11/12 00:40:59;;;;;;;25.30;9.73;;;6.90;99.90;;;;;;5056482;28;20184;-67
2022/11/12 00:43:45;;;;;;;31.10;10.52;;;6.90;99.90;;;;;;5073474;28;20188;-66
2022/11/12 00:46:32;;;;;;;48.53;11.23;;;6.90;99.90;;;;;;5074501;28;20188;-66
2022/11/12 00:49:18;;;;;;;32.70;9.57;;;6.90;99.90;;;;;;5059549;28;20195;-66
2022/11/12 00:52:05;;;;;;;39.28;10.10;;;6.80;99.90;;;;;;5062417;28;20215;-66
2022/11/12 00:54:52;;;;;;;46.40;12.45;;;6.80;99.90;;;;;;5054925;28;20184;-67
2022/11/12 00:57:39;;;;;;;27.75;9.90;;;6.90;99.90;;;;;;5056552;28;20196;-67
2022/11/12 01:00:26;;;;;;;19.70;9.25;;;6.90;99.90;;;;;;5071063;28;20180;-67
2022/11/12 01:03:12;;;;;;;22.73;8.57;;;6.80;99.90;;;;;;5056868;28;20184;-67
2022/11/12 01:06:02;;;;;;;32.17;8.60;;;6.80;99.90;;;;;;5071894;28;20208;-67
2022/11/12 01:08:49;;;;;;;40.08;10.18;;;6.90;99.90;;;;;;5074297;28;20203;-67
2022/11/12 01:11:37;;;;;;;17.65;9.38;;;6.70;99.90;;;;;;5060446;28;20220;-67
2022/11/12 01:14:24;;;;;;;24.13;9.90;;;6.70;99.90;;;;;;5057470;28;20673;-67
2022/11/12 01:17:10;;;;;;;13.05;9.02;;;6.90;99.90;;;;;;5056614;28;20632;-65
2022/11/12 01:19:57;;;;;;;18.73;8.80;;;6.90;99.90;;;;;;5061017;28;20216;-66
2022/11/12 01:22:43;;;;;;;17.65;8.73;;;6.90;99.90;;;;;;5067631;28;20245;-65
2022/11/12 01:25:29;;;;;;;20.65;9.60;;;6.90;99.90;;;;;;5061354;28;20212;-66
2022/11/12 01:28:17;;;;;;;26.70;9.65;;;6.90;99.90;;;;;;5059252;28;20236;-65
2022/11/12 01:31:11;;;;;;;27.58;10.38;;;6.90;99.90;;;;;;5073726;28;20188;-66
2022/11/12 01:33:59;;;;;;;24.85;8.52;;;6.90;99.90;;;;;;5067308;28;20200;-66
2022/11/12 01:36:45;;;;;;;20.67;9.55;;;6.80;99.90;;;;;;5073782;28;20217;-66
2022/11/12 01:39:31;;;;;;;25.60;10.30;;;6.80;99.90;;;;;;5073463;28;20303;-65
2022/11/12 01:42:17;;;;;;;23.50;10.50;;;6.80;99.90;;;;;;5069859;28;20193;-65
2022/11/12 01:45:14;;;;;;;24.40;10.20;;;6.80;99.90;;;;;;5054131;28;20205;-65
2022/11/12 01:48:02;;;;;;;17.42;9.73;;;6.80;99.90;;;;;;5065554;28;20215;-65
2022/11/12 01:50:49;;;;;;;22.55;10.00;;;6.80;99.90;;;;;;5057534;28;20197;-65
2022/11/12 01:53:43;;;;;;;27.67;10.57;;;6.90;99.90;;;;;;5053136;28;20195;-65
2022/11/12 01:56:31;;;;;;;24.85;10.88;;;6.90;99.90;;;;;;5061526;28;20241;-65
2022/11/12 01:59:23;;;;;;;18.92;10.15;;;6.80;99.90;;;;;;5053626;28;20261;-65
2022/11/12 02:02:12;;;;;;;33.35;11.32;;;6.80;99.90;;;;;;5063509;28;20203;-64
2022/11/12 02:04:59;;;;;;;17.23;8.70;;;6.80;99.90;;;;;;5074410;28;20204;-66
2022/11/12 02:07:47;;;;;;;27.65;10.00;;;6.80;99.90;;;;;;5075227;28;20192;-66
2022/11/12 02:10:34;;;;;;;25.33;8.52;;;6.70;99.90;;;;;;5075340;28;20645;-66
2022/11/12 02:16:21;;;;;;;21.92;8.98;;;6.70;99.90;;;;;;5051464;28;20196;-66
2022/11/12 02:19:11;;;;;;;23.48;9.13;;;6.70;99.90;;;;;;5054320;28;20565;-66
2022/11/12 02:21:59;;;;;;;38.17;10.25;;;6.80;99.90;;;;;;5067598;28;20199;-66
2022/11/12 02:24:45;;;;;;;36.08;9.80;;;6.80;99.90;;;;;;5073919;28;20211;-66
2022/11/12 02:27:32;;;;;;;31.55;9.38;;;6.80;99.90;;;;;;5073415;28;20323;-66
2022/11/12 02:30:19;;;;;;;28.90;11.30;;;6.80;99.90;;;;;;5063211;28;20249;-66
2022/11/12 02:33:05;;;;;;;16.48;8.15;;;6.70;99.90;;;;;;5062188;28;20204;-66
2022/11/12 02:35:52;;;;;;;27.90;9.68;;;6.70;99.90;;;;;;5074490;28;20191;-66
2022/11/12 02:38:39;;;;;;;24.52;10.15;;;6.70;99.90;;;;;;5056483;28;20192;-66
2022/11/12 02:41:26;;;;;;;22.17;8.48;;;6.70;99.90;;;;;;5052722;28;20191;-65
2022/11/12 02:44:12;;;;;;;23.80;9.68;;;6.70;99.90;;;;;;5053355;28;20276;-65
2022/11/12 02:46:58;;;;;;;21.58;10.00;;;6.70;99.90;;;;;;5052872;28;20185;-64
2022/11/12 02:49:45;;;;;;;22.00;9.43;;;6.70;99.90;;;;;;5052801;28;20197;-64
2022/11/12 02:52:32;;;;;;;14.10;8.10;;;6.70;99.90;;;;;;5054443;28;20231;-65
2022/11/12 02:55:20;;;;;;;30.88;9.85;;;6.60;99.90;;;;;;5053996;28;20192;-64
2022/11/12 02:58:06;;;;;;;20.40;8.15;;;6.50;99.90;;;;;;5052713;28;20181;-66
2022/11/12 03:00:54;;;;;;;23.52;8.95;;;6.60;99.90;;;;;;5051968;28;20189;-65
2022/11/12 03:03:40;;;;;;;17.05;8.52;;;6.60;99.90;;;;;;5050487;28;20189;-65
2022/11/12 03:06:26;;;;;;;28.33;9.73;;;6.70;99.90;;;;;;5070425;28;20199;-67
2022/11/12 03:09:13;;;;;;;18.15;8.00;;;6.70;99.90;;;;;;5073935;28;20317;-66
2022/11/12 03:12:01;;;;;;;25.00;8.38;;;6.60;99.90;;;;;;5064768;28;20220;-66
2022/11/12 03:14:47;;;;;;;16.63;8.40;;;6.60;99.90;;;;;;5071642;28;20192;-66
2022/11/12 03:17:34;;;;;;;19.63;8.55;;;6.60;99.90;;;;;;5052135;28;20197;-65
2022/11/12 03:20:21;;;;;;;15.00;7.95;;;6.60;99.90;;;;;;5052509;28;20203;-65
2022/11/12 03:23:09;;;;;;;12.73;7.45;;;6.70;99.90;;;;;;5051726;28;20646;-65
2022/11/12 03:25:55;;;;;;;23.70;9.00;;;6.70;99.90;;;;;;5060164;28;20211;-65
2022/11/12 03:28:43;;;;;;;16.67;8.45;;;6.70;99.90;;;;;;5053520;28;20600;-65
2022/11/12 03:31:30;;;;;;;34.90;10.60;;;6.70;99.90;;;;;;5052127;28;20701;-65
2022/11/12 03:34:16;;;;;;;36.72;9.18;;;6.70;99.90;;;;;;5052401;28;20189;-66
2022/11/12 03:37:02;;;;;;;14.20;8.70;;;6.70;99.90;;;;;;5052623;28;20192;-65
2022/11/12 03:39:49;;;;;;;12.77;8.23;;;6.80;99.90;;;;;;5052233;28;20215;-66
2022/11/12 03:42:35;;;;;;;26.23;10.02;;;6.80;99.90;;;;;;5051742;28;20658;-66
2022/11/12 03:45:25;;;;;;;18.02;9.32;;;6.80;99.90;;;;;;5052600;28;20243;-65
2022/11/12 03:48:12;;;;;;;16.17;9.23;;;6.80;99.90;;;;;;5052315;28;20193;-65
2022/11/12 03:50:59;;;;;;;11.63;8.48;;;6.70;99.90;;;;;;5051982;28;20246;-66
2022/11/12 03:53:46;;;;;;;15.60;9.00;;;6.70;99.90;;;;;;5052176;28;20241;-66
2022/11/12 03:56:32;;;;;;;22.40;9.82;;;6.70;99.90;;;;;;5052271;28;20196;-65
2022/11/12 03:59:19;;;;;;;25.35;8.85;;;6.70;99.90;;;;;;5052570;28;20189;-65
2022/11/12 04:02:06;;;;;;;17.23;8.70;;;6.60;99.90;;;;;;5052074;28;20197;-65
2022/11/12 04:11:05;;;;;;;13.43;8.95;;;6.70;99.90;;;;;;5053474;28;20224;-65
2022/11/12 04:13:51;;;;;;;21.83;9.23;;;6.70;99.90;;;;;;5054448;28;20196;-65
2022/11/12 04:22:47;;;;;;;15.15;9.20;;;6.70;99.90;;;;;;5070626;28;20196;-65
2022/11/12 04:28:38;;;;;;;13.50;8.60;;;6.60;99.90;;;;;;5078308;28;20713;-65
2022/11/12 04:31:23;;;;;;;15.15;8.77;;;6.60;99.90;;;;;;5075041;28;20194;-65
2022/11/12 04:37:15;;;;;;;13.77;8.95;;;6.60;99.90;;;;;;5078274;28;20188;-64
2022/11/12 04:44:58;;;;;;;12.02;8.80;;;6.60;99.90;;;;;;5057774;28;20193;-66
2022/11/12 04:46:14;;;;;;;13.20;8.63;;;6.70;99.90;;;;;;5068718;28;20224;-65
2022/11/12 04:49:01;;;;;;;13.50;8.95;;;6.70;99.90;;;;;;5066242;28;20282;-65
2022/11/12 04:54:52;;;;;;;15.27;9.70;;;6.80;99.90;;;;;;5071441;28;20650;-65
2022/11/12 04:57:39;;;;;;;16.83;9.13;;;6.70;99.90;;;;;;5058115;28;20181;-65
2022/11/12 05:00:26;;;;;;;13.88;8.70;;;6.70;99.90;;;;;;5056361;28;20196;-65
2022/11/12 05:03:12;;;;;;;13.60;9.48;;;6.70;99.90;;;;;;5053932;28;20193;-65
2022/11/12 05:06:01;;;;;;;14.35;9.25;;;6.70;99.90;;;;;;5054949;28;20258;-65
2022/11/12 05:08:47;;;;;;;17.50;11.70;;;6.80;99.90;;;;;;5058192;28;20189;-65
2022/11/12 05:11:35;;;;;;;13.23;9.52;;;6.80;99.90;;;;;;5055360;28;20228;-65
2022/11/12 05:14:22;;;;;;;14.43;10.93;;;6.70;99.90;;;;;;5054720;28;20204;-65
2022/11/12 05:17:08;;;;;;;17.73;12.10;;;6.80;99.90;;;;;;5053396;28;20201;-65
2022/11/12 05:19:54;;;;;;;32.10;11.38;;;6.80;99.90;;;;;;5054624;28;20611;-64
2022/11/12 05:22:41;;;;;;;19.40;12.23;;;6.80;99.90;;;;;;5056072;28;20276;-65
2022/11/12 05:25:27;;;;;;;24.88;11.88;;;6.80;99.90;;;;;;5074921;28;20185;-64
2022/11/12 05:28:15;;;;;;;17.42;12.05;;;6.80;99.90;;;;;;5067245;28;20315;-66
2022/11/12 05:31:01;;;;;;;18.63;12.25;;;6.80;99.90;;;;;;5056813;28;20196;-65
2022/11/12 05:33:47;;;;;;;22.25;13.60;;;6.80;99.90;;;;;;5060698;28;20184;-65
2022/11/12 05:36:34;;;;;;;20.60;12.35;;;6.80;99.90;;;;;;5067494;28;20204;-65
2022/11/12 05:39:20;;;;;;;20.95;12.90;;;6.80;99.90;;;;;;5056936;28;20197;-66
2022/11/12 05:42:07;;;;;;;23.10;12.32;;;6.80;99.90;;;;;;5066186;28;20202;-65
2022/11/12 05:44:54;;;;;;;20.27;13.15;;;6.90;99.90;;;;;;5058215;28;20195;-65
2022/11/12 05:47:41;;;;;;;27.92;15.98;;;6.80;99.90;;;;;;5073560;28;20200;-65
2022/11/12 05:50:27;;;;;;;21.38;12.95;;;6.90;99.90;;;;;;5074844;28;20180;-65
2022/11/12 05:53:13;;;;;;;22.17;13.50;;;7.00;99.90;;;;;;5055000;28;20188;-65
2022/11/12 05:56:01;;;;;;;20.27;12.00;;;6.90;99.90;;;;;;5054630;28;20185;-65
2022/11/12 05:58:48;;;;;;;27.63;14.95;;;6.90;99.90;;;;;;5056029;28;20200;-65
2022/11/12 06:01:42;;;;;;;23.25;13.90;;;6.90;99.90;;;;;;5054833;28;20196;-65
2022/11/12 06:04:28;;;;;;;34.60;15.80;;;6.90;99.90;;;;;;5065553;28;20212;-65
2022/11/12 06:07:15;;;;;;;31.52;15.70;;;7.00;99.90;;;;;;5074050;28;20613;-65
2022/11/12 06:10:01;;;;;;;37.08;18.05;;;7.00;99.90;;;;;;5074069;28;20180;-66
2022/11/12 06:12:48;;;;;;;20.88;13.60;;;7.00;99.90;;;;;;5074492;28;20228;-66
2022/11/12 06:15:35;;;;;;;22.55;13.80;;;7.10;99.90;;;;;;5070779;28;20192;-66
2022/11/12 06:18:23;;;;;;;21.15;12.27;;;7.10;99.90;;;;;;5055039;28;20547;-65
2022/11/12 06:21:21;;;;;;;19.02;11.00;;;7.00;99.90;;;;;;5056616;28;20184;-65
2022/11/12 06:24:08;;;;;;;23.60;12.80;;;7.00;99.90;;;;;;5055487;28;20189;-65
2022/11/12 06:26:54;;;;;;;20.52;12.73;;;7.10;99.90;;;;;;5054279;28;20679;-65
2022/11/12 06:29:41;;;;;;;23.83;13.35;;;7.10;99.90;;;;;;5053797;28;20181;-65
2022/11/12 06:32:27;;;;;;;20.92;13.55;;;7.20;99.90;;;;;;5056348;28;20204;-66
2022/11/12 06:35:15;;;;;;;29.83;14.55;;;7.10;99.90;;;;;;5056329;28;20219;-65
2022/11/12 06:38:02;;;;;;;22.05;13.52;;;7.10;99.90;;;;;;5056415;28;20193;-66
2022/11/12 06:40:48;;;;;;;24.88;14.02;;;7.10;99.90;;;;;;5055406;28;20208;-66
2022/11/12 06:43:36;;;;;;;26.08;13.10;;;7.10;99.90;;;;;;5055476;28;20500;-66
2022/11/12 06:46:22;;;;;;;24.15;13.43;;;7.10;99.90;;;;;;5055330;28;20196;-65
2022/11/12 06:49:09;;;;;;;26.30;13.57;;;7.20;99.90;;;;;;5053673;28;20250;-65
2022/11/12 06:51:58;;;;;;;25.05;13.90;;;7.20;99.90;;;;;;5053945;28;20235;-66
2022/11/12 06:54:44;;;;;;;25.65;14.40;;;7.30;99.90;;;;;;5054637;28;20200;-65
2022/11/12 06:57:31;;;;;;;24.23;13.82;;;7.30;99.90;;;;;;5069517;28;20551;-66
2022/11/12 07:00:18;;;;;;;26.98;14.70;;;7.30;99.90;;;;;;5060617;28;20199;-66
2022/11/12 07:03:06;;;;;;;28.58;14.25;;;7.20;99.90;;;;;;5059823;28;20206;-66
2022/11/12 07:05:53;;;;;;;28.42;13.93;;;7.30;99.90;;;;;;5062971;28;20516;-66
2022/11/12 07:08:41;;;;;;;26.08;15.02;;;7.40;99.90;;;;;;5053042;28;20216;-65
2022/11/12 07:11:28;;;;;;;29.20;15.75;;;7.40;99.90;;;;;;5071750;28;20216;-66
2022/11/12 07:14:14;;;;;;;30.70;14.85;;;7.30;99.90;;;;;;5076583;28;20196;-65
2022/11/12 07:17:01;;;;;;;21.98;13.73;;;7.30;99.90;;;;;;5071747;28;20271;-66
2022/11/12 07:19:47;;;;;;;27.48;15.30;;;7.30;99.90;;;;;;5069825;28;20637;-66
2022/11/12 07:22:34;;;;;;;19.98;13.77;;;7.30;99.90;;;;;;5069793;28;20195;-65
2022/11/12 07:25:21;;;;;;;23.42;16.00;;;7.30;99.90;;;;;;5062004;28;20201;-65
2022/11/12 07:28:08;;;;;;;25.77;15.20;;;7.30;99.90;;;;;;5057826;28;20239;-66
2022/11/12 07:30:56;;;;;;;33.20;18.25;;;7.30;99.90;;;;;;5073857;28;20188;-67
2022/11/12 07:33:43;;;;;;;43.50;20.08;;;7.30;99.90;;;;;;5065640;28;20196;-67
2022/11/12 07:36:29;;;;;;;44.58;17.65;;;7.30;99.90;;;;;;5070921;28;20642;-67
2022/11/12 07:39:16;;;;;;;43.95;16.73;;;7.30;99.90;;;;;;5078161;28;20191;-67
2022/11/12 07:42:04;;;;;;;33.05;16.10;;;7.30;99.90;;;;;;5077212;28;20651;-67
2022/11/12 07:44:50;;;;;;;26.88;16.08;;;7.20;99.90;;;;;;5078635;28;20180;-67
2022/11/12 07:47:36;;;;;;;40.70;17.60;;;7.30;99.90;;;;;;5076575;28;20283;-67
2022/11/12 07:50:22;;;;;;;25.30;16.25;;;7.30;99.90;;;;;;5079465;28;20184;-67
2022/11/12 07:53:09;;;;;;;26.45;17.73;;;7.40;99.90;;;;;;5080063;28;20555;-67
2022/11/12 07:55:56;;;;;;;38.33;19.20;;;7.40;99.90;;;;;;5081192;28;20195;-67
2022/11/12 07:58:44;;;;;;;34.53;20.88;;;7.30;99.90;;;;;;5081689;28;20204;-67
2022/11/12 08:01:32;;;;;;;35.17;20.48;;;7.30;99.90;;;;;;5080208;28;20192;-67
2022/11/12 08:04:18;;;;;;;33.97;20.10;;;7.30;99.90;;;;;;5079986;28;20200;-66
2022/11/12 08:07:05;;;;;;;29.70;17.63;;;7.30;99.90;;;;;;5080585;28;20208;-67
2022/11/12 08:09:52;;;;;;;34.78;21.10;;;7.30;99.90;;;;;;5081681;28;20191;-67
2022/11/12 08:12:38;;;;;;;32.85;20.77;;;7.20;99.90;;;;;;5080851;28;20273;-67
2022/11/12 08:15:26;;;;;;;28.55;19.88;;;7.30;99.90;;;;;;5080820;28;20195;-67
2022/11/12 08:18:12;;;;;;;28.77;20.35;;;7.30;99.90;;;;;;5081126;28;20187;-67
2022/11/12 08:21:02;;;;;;;28.55;19.17;;;7.20;99.90;;;;;;5078087;28;20301;-67
2022/11/12 08:23:49;;;;;;;25.88;17.40;;;7.30;99.90;;;;;;5081401;28;20188;-67
2022/11/12 08:26:35;;;;;;;27.30;19.10;;;7.20;99.90;;;;;;5080210;28;20189;-67
2022/11/12 08:29:22;;;;;;;26.98;18.10;;;7.30;99.90;;;;;;5080640;28;20322;-66
2022/11/12 08:32:10;;;;;;;32.10;19.25;;;7.40;99.90;;;;;;5079231;28;20199;-67
2022/11/12 08:34:57;;;;;;;29.98;19.73;;;7.50;99.90;;;;;;5079299;28;20211;-67
2022/11/12 08:37:43;;;;;;;24.50;17.83;;;7.50;99.90;;;;;;5081497;28;20200;-67
2022/11/12 08:40:31;;;;;;;25.15;19.48;;;7.50;99.90;;;;;;5079426;28;20196;-67
2022/11/12 08:43:19;;;;;;;25.15;17.20;;;7.50;99.90;;;;;;5078229;28;20200;-67
2022/11/12 08:46:05;;;;;;;22.40;17.48;;;7.50;99.90;;;;;;5074813;28;20580;-68
2022/11/12 08:48:53;;;;;;;21.90;16.38;;;7.50;99.90;;;;;;5075674;28;20211;-67
2022/11/12 08:51:39;;;;;;;21.55;16.95;;;7.50;99.90;;;;;;5074900;28;20180;-67
2022/11/12 08:54:26;;;;;;;22.50;14.93;;;7.40;99.90;;;;;;5076285;28;20188;-67
2022/11/12 08:57:12;;;;;;;22.33;16.60;;;7.30;99.90;;;;;;5076197;28;20619;-67
2022/11/12 08:59:58;;;;;;;24.48;17.48;;;7.20;99.90;;;;;;5077189;28;20195;-67
2022/11/12 09:02:45;;;;;;;21.80;15.68;;;7.10;99.90;;;;;;5073706;28;20536;-66
2022/11/12 09:05:34;;;;;;;19.13;15.35;;;7.20;99.90;;;;;;5076791;28;20192;-67
2022/11/12 09:08:23;;;;;;;18.58;15.32;;;7.10;99.90;;;;;;5076647;28;20208;-67
2022/11/12 09:11:10;;;;;;;16.10;13.93;;;7.20;99.90;;;;;;5076464;28;20224;-67
2022/11/12 09:13:56;;;;;;;21.50;14.57;;;7.10;99.90;;;;;;5077564;28;20184;-67
2022/11/12 09:16:43;;;;;;;20.60;16.17;;;6.90;99.90;;;;;;5076949;28;20318;-67
2022/11/12 09:19:29;;;;;;;18.88;14.55;;;7.10;99.90;;;;;;5076518;28;20188;-67
2022/11/12 09:22:17;;;;;;;24.23;17.05;;;7.00;99.90;;;;;;5077531;28;20192;-67
2022/11/12 09:25:03;;;;;;;25.83;16.90;;;6.90;99.90;;;;;;5071715;28;20204;-67
2022/11/12 09:27:50;;;;;;;24.83;17.73;;;7.00;99.90;;;;;;5075834;28;20223;-67
2022/11/12 09:30:37;;;;;;;22.92;17.95;;;7.10;99.90;;;;;;5075313;28;20649;-66
2022/11/12 09:33:26;;;;;;;23.63;16.90;;;7.10;99.90;;;;;;5072867;28;20184;-65
2022/11/12 09:36:13;;;;;;;21.42;16.40;;;7.10;99.90;;;;;;5073514;28;20184;-66
2022/11/12 09:39:00;;;;;;;21.60;15.43;;;7.20;99.90;;;;;;5072432;28;20272;-66
2022/11/12 09:41:47;;;;;;;25.13;17.88;;;7.20;99.90;;;;;;5073338;28;20185;-66
2022/11/12 09:44:36;;;;;;;29.80;17.48;;;7.10;99.90;;;;;;5073116;28;20203;-65
2022/11/12 09:47:29;;;;;;;24.50;17.50;;;7.20;99.90;;;;;;5073446;28;20521;-66
2022/11/12 09:50:23;;;;;;;23.73;18.90;;;7.20;99.90;;;;;;5072190;28;20207;-65
2022/11/12 09:53:16;;;;;;;26.83;19.55;;;7.30;99.90;;;;;;5072889;28;20725;-66
2022/11/12 09:56:07;;;;;;;25.75;19.88;;;7.30;99.90;;;;;;5073071;28;20188;-66
2022/11/12 09:58:54;;;;;;;24.38;17.23;;;7.30;99.90;;;;;;5072892;28;20196;-65
2022/11/12 10:01:57;;;;;;;24.25;18.30;;;7.40;99.90;;;;;;5072087;28;20627;-66
2022/11/12 10:05:09;;;;;;;20.58;16.42;;;7.40;99.90;;;;;;5071881;28;20406;-66
2022/11/12 10:08:05;;;;;;;21.88;16.77;;;7.50;99.90;;;;;;5071901;28;20219;-66
2022/11/12 10:11:02;;;;;;;24.85;17.70;;;7.50;99.90;;;;;;5072177;28;20228;-65
2022/11/12 10:13:59;;;;;;;25.02;18.40;;;7.50;99.90;;;;;;5072768;28;20207;-66
2022/11/12 10:16:55;;;;;;;23.48;17.02;;;7.50;99.90;;;;;;5072372;28;20188;-65
2022/11/12 10:19:53;;;;;;;23.23;17.27;;;7.60;99.90;;;;;;5072415;28;20188;-65
2022/11/12 10:22:58;;;;;;;21.52;18.00;;;7.50;99.90;;;;;;5072740;28;20574;-65
2022/11/12 10:25:47;;;;;;;24.42;17.15;;;7.50;99.90;;;;;;5072346;28;20301;-66
2022/11/12 10:28:38;;;;;;;19.70;15.45;;;7.60;99.90;;;;;;5072356;28;20236;-66
2022/11/12 10:31:26;;;;;;;23.27;17.27;;;7.60;99.90;;;;;;5072569;28;20195;-65
2022/11/12 10:34:17;;;;;;;24.70;18.08;;;7.60;99.90;;;;;;5072217;28;20230;-65
2022/11/12 10:37:06;;;;;;;21.42;18.00;;;7.60;99.90;;;;;;5072433;28;20196;-65
2022/11/12 10:39:53;;;;;;;22.10;16.70;;;7.60;99.90;;;;;;5072329;28;20188;-65
2022/11/12 10:42:57;;;;;;;37.30;30.02;;;7.50;99.90;;;;;;5072366;28;20197;-65
2022/11/12 10:45:44;;;;;;;22.70;17.23;;;7.40;99.90;;;;;;5072244;28;20214;-66
2022/11/12 10:48:32;;;;;;;25.05;19.73;;;7.30;99.90;;;;;;5072200;28;20212;-65
2022/11/12 10:51:23;;;;;;;27.73;20.15;;;7.40;99.90;;;;;;5071990;28;20195;-65
2022/11/12 10:54:29;;;;;;;21.42;17.55;;;7.50;99.90;;;;;;5072269;28;20188;-65
2022/11/12 10:57:23;;;;;;;24.50;17.98;;;7.40;99.90;;;;;;5071359;28;20207;-66
2022/11/12 11:00:18;;;;;;;23.10;17.05;;;7.40;99.90;;;;;;5072131;28;20225;-65
2022/11/12 11:03:07;;;;;;;25.42;18.02;;;7.50;99.90;;;;;;5070420;28;20206;-66
2022/11/12 11:05:59;;;;;;;21.75;17.25;;;7.50;99.90;;;;;;5072063;28;20185;-66
2022/11/12 11:08:47;;;;;;;21.05;16.55;;;7.60;99.90;;;;;;5070943;28;20208;-65
2022/11/12 11:11:34;;;;;;;21.48;16.92;;;7.50;99.90;;;;;;5072228;28;20232;-65
2022/11/12 11:14:27;;;;;;;25.25;18.83;;;7.50;99.90;;;;;;5071155;28;20195;-65
2022/11/12 11:17:18;;;;;;;27.45;19.33;;;7.50;99.90;;;;;;5071691;28;20188;-65
2022/11/12 11:20:05;;;;;;;32.33;21.50;;;7.50;99.90;;;;;;5071522;28;20191;-66
2022/11/12 11:22:56;;;;;;;23.83;17.25;;;7.60;99.90;;;;;;5071686;28;20211;-65
2022/11/12 11:25:43;;;;;;;23.38;17.33;;;7.50;99.90;;;;;;5070556;28;20195;-65
2022/11/12 11:28:36;;;;;;;20.77;16.63;;;7.50;99.90;;;;;;5074909;28;20831;-66
2022/11/12 11:31:32;;;;;;;24.70;17.50;;;7.50;99.90;;;;;;5076528;28;20184;-66
2022/11/12 11:34:30;;;;;;;23.02;17.55;;;7.40;99.90;;;;;;5075058;28;20211;-66
2022/11/12 11:37:25;;;;;;;26.92;18.05;;;7.30;99.90;;;;;;5075771;28;20211;-66
2022/11/12 11:40:21;;;;;;;24.67;18.92;;;7.30;99.90;;;;;;5075253;28;20208;-66
2022/11/12 11:43:27;;;;;;;21.13;16.85;;;7.40;99.90;;;;;;5075369;28;20191;-66
2022/11/12 11:46:28;;;;;;;21.52;17.17;;;7.50;99.90;;;;;;5075681;28;20527;-66
2022/11/12 11:49:38;;;;;;;20.95;17.27;;;7.60;99.90;;;;;;5074902;28;20211;-67
2022/11/12 11:52:41;;;;;;;24.33;19.60;;;7.60;99.90;;;;;;5075384;28;20639;-66
2022/11/12 11:55:48;;;;;;;22.65;18.52;;;7.70;99.90;;;;;;5075222;28;20204;-66
2022/11/12 11:58:56;;;;;;;21.40;18.65;;;7.60;99.90;;;;;;5075442;28;20249;-66
2022/11/12 12:02:01;;;;;;;20.00;17.38;;;7.70;99.90;;;;;;5074195;28;20188;-65
2022/11/12 12:04:50;;;;;;;18.83;16.45;;;7.70;99.90;;;;;;5075345;28;20211;-66
2022/11/12 12:07:45;;;;;;;20.55;16.20;;;7.80;99.90;;;;;;5075343;28;20189;-67
2022/11/12 12:10:45;;;;;;;23.92;16.50;;;7.70;99.90;;;;;;5075193;28;20204;-66
2022/11/12 12:13:42;;;;;;;21.13;15.70;;;7.70;99.90;;;;;;5075223;28;20199;-66
2022/11/12 12:16:47;;;;;;;23.27;17.90;;;7.80;99.90;;;;;;5074488;28;20571;-67
2022/11/12 12:19:47;;;;;;;18.80;16.05;;;7.90;99.90;;;;;;5074905;28;20184;-66
2022/11/12 12:22:38;;;;;;;18.58;15.95;;;7.90;99.90;;;;;;5074233;28;20195;-66
2022/11/12 12:25:29;;;;;;;25.95;17.10;;;7.70;99.90;;;;;;5074980;28;20184;-67
2022/11/12 12:28:26;;;;;;;23.55;17.60;;;7.80;99.90;;;;;;5074688;28;20590;-66
2022/11/12 12:31:17;;;;;;;23.48;18.65;;;7.80;99.90;;;;;;5074772;28;20177;-66
2022/11/12 12:34:06;;;;;;;22.23;18.27;;;7.80;99.90;;;;;;5073473;28;20188;-65
2022/11/12 12:36:59;;;;;;;23.05;18.10;;;7.50;99.90;;;;;;5074582;28;20180;-66
2022/11/12 12:39:55;;;;;;;20.83;17.10;;;7.70;99.90;;;;;;5075263;28;20192;-66
2022/11/12 12:42:48;;;;;;;21.17;16.48;;;7.60;99.90;;;;;;5074419;28;20195;-66
2022/11/12 12:45:40;;;;;;;21.80;17.77;;;7.60;99.90;;;;;;5075232;28;20195;-66
2022/11/12 12:48:30;;;;;;;24.38;18.55;;;7.60;99.90;;;;;;5074555;28;20184;-66
2022/11/12 12:51:16;;;;;;;27.30;19.00;;;7.80;99.90;;;;;;5073394;28;20631;-66
2022/11/12 12:54:03;;;;;;;30.23;18.42;;;7.60;99.90;;;;;;5074292;28;20242;-66
2022/11/12 12:56:49;;;;;;;26.02;18.80;;;7.80;99.90;;;;;;5074873;28;20192;-66
2022/11/12 12:59:36;;;;;;;22.13;17.55;;;7.80;99.90;;;;;;5074702;28;20214;-66
2022/11/12 13:02:25;;;;;;;26.88;18.48;;;7.70;99.90;;;;;;5072897;28;20626;-66
2022/11/12 13:05:26;;;;;;;27.02;18.30;;;7.80;99.90;;;;;;5074223;28;20188;-66
2022/11/12 13:08:22;;;;;;;25.65;19.13;;;7.80;99.90;;;;;;5073708;28;20604;-66
2022/11/12 13:11:09;;;;;;;29.70;21.38;;;7.70;99.90;;;;;;5074406;28;20263;-65
2022/11/12 13:13:55;;;;;;;24.92;19.25;;;7.70;99.90;;;;;;5074272;28;20191;-66
2022/11/12 13:16:58;;;;;;;30.50;20.52;;;7.90;99.90;;;;;;5074219;28;20198;-65
2022/11/12 13:20:08;;;;;;;32.22;19.65;;;8.00;99.90;;;;;;5073507;28;20210;-64
2022/11/12 13:22:54;;;;;;;23.23;17.35;;;8.10;99.90;;;;;;5073758;28;20199;-65
2022/11/12 13:25:40;;;;;;;25.38;18.38;;;8.10;99.90;;;;;;5068750;28;20199;-66
2022/11/12 13:28:27;;;;;;;24.70;18.70;;;8.10;99.90;;;;;;5073625;28;20590;-66
2022/11/12 13:31:27;;;;;;;30.73;19.80;;;8.20;99.90;;;;;;5073661;28;20209;-67
2022/11/12 13:34:20;;;;;;;31.20;20.10;;;8.10;99.90;;;;;;5073706;28;20194;-66
2022/11/12 13:37:20;;;;;;;24.13;18.40;;;8.10;99.90;;;;;;5073679;28;20188;-66
2022/11/12 13:40:12;;;;;;;27.52;19.40;;;8.00;99.90;;;;;;5073712;28;20658;-64
2022/11/12 13:43:04;;;;;;;25.15;18.55;;;8.10;99.90;;;;;;5073342;28;20216;-65
2022/11/12 13:45:54;;;;;;;28.23;19.13;;;8.20;99.90;;;;;;5072447;28;20214;-65
2022/11/12 13:48:44;;;;;;;31.13;20.15;;;8.20;99.90;;;;;;5073481;28;20192;-64
2022/11/12 13:51:38;;;;;;;29.13;21.40;;;8.10;99.90;;;;;;5073127;28;20650;-65
2022/11/12 13:54:33;;;;;;;27.02;20.13;;;8.10;99.90;;;;;;5073535;28;20207;-65
2022/11/12 13:57:31;;;;;;;27.92;20.00;;;8.10;99.90;;;;;;5073602;28;20188;-66
2022/11/12 14:00:26;;;;;;;25.58;19.95;;;8.10;99.90;;;;;;5073032;28;20184;-66
2022/11/12 14:03:18;;;;;;;25.50;19.85;;;8.00;99.90;;;;;;5071931;28;20196;-65
2022/11/12 14:06:14;;;;;;;26.23;20.30;;;8.10;99.90;;;;;;5072789;28;20188;-65
2022/11/12 14:09:26;;;;;;;30.13;20.77;;;8.10;99.90;;;;;;5073399;28;20188;-66
2022/11/12 14:12:45;;;;;;;26.48;20.23;;;8.20;99.90;;;;;;5072185;28;20215;-66
2022/11/12 14:15:56;;;;;;;27.63;19.65;;;8.00;99.90;;;;;;5060104;28;20203;-66
2022/11/12 14:19:03;;;;;;;30.88;21.15;;;8.00;99.90;;;;;;5070903;28;20204;-66
2022/11/12 14:22:12;;;;;;;25.45;19.40;;;8.10;99.90;;;;;;5072181;28;20196;-66
2022/11/12 14:25:01;;;;;;;26.52;19.95;;;8.10;99.90;;;;;;5072304;28;20192;-65
2022/11/12 14:27:50;;;;;;;41.53;22.92;;;8.20;99.90;;;;;;5072489;28;20288;-65
2022/11/12 14:30:43;;;;;;;33.08;20.95;;;8.20;99.90;;;;;;5072415;28;20607;-65
2022/11/12 14:33:32;;;;;;;26.67;20.45;;;8.30;99.90;;;;;;5072613;28;20565;-65
2022/11/12 14:36:20;;;;;;;24.55;19.08;;;8.30;99.90;;;;;;5072339;28;20253;-65
2022/11/12 14:39:07;;;;;;;24.90;19.55;;;8.40;99.90;;;;;;5072238;28;20184;-65
2022/11/12 14:41:56;;;;;;;25.50;19.75;;;8.40;99.90;;;;;;5072220;28;20645;-65
2022/11/12 14:44:43;;;;;;;25.90;19.88;;;8.30;99.90;;;;;;5072426;28;20206;-65
2022/11/12 14:47:30;;;;;;;33.92;21.88;;;8.20;99.90;;;;;;5072388;28;20195;-65
2022/11/12 14:50:20;;;;;;;34.05;21.38;;;8.20;99.90;;;;;;5071766;28;20573;-65
2022/11/12 14:53:14;;;;;;;29.23;22.30;;;8.20;99.90;;;;;;5072194;28;20193;-65
2022/11/12 14:56:03;;;;;;;31.17;21.52;;;8.20;99.90;;;;;;5071861;28;20204;-65
2022/11/12 14:58:50;;;;;;;29.95;20.55;;;8.20;99.90;;;;;;5071928;28;20196;-65
2022/11/12 15:01:40;;;;;;;30.60;21.50;;;8.20;99.90;;;;;;5064387;28;20315;-66